createdAt,value
2022-09-30T00:01:22.398Z,93126.00
2022-09-30T00:05:24.451Z,93110.00
2022-09-30T00:09:27.017Z,93109.00
2022-09-30T00:14:21.692Z,93115.00
2022-09-30T00:19:32.215Z,93122.00
2022-09-30T00:24:03.858Z,93114.00
2022-09-30T00:28:36.140Z,93119.00
2022-09-30T00:33:03.969Z,93112.00
2022-09-30T00:37:06.112Z,93115.00
2022-09-30T00:41:09.397Z,93126.00
2022-09-30T00:45:11.657Z,93123.00
2022-09-30T00:50:20.219Z,93129.00
2022-09-30T00:54:48.160Z,93139.00
2022-09-30T00:59:25.268Z,93140.00
2022-09-30T01:04:14.155Z,93153.00
2022-09-30T01:08:58.684Z,93154.00
2022-09-30T01:13:05.161Z,93147.00
2022-09-30T01:17:30.201Z,93163.00
2022-09-30T01:22:16.282Z,93152.00
2022-09-30T01:26:46.292Z,93143.00
2022-09-30T01:31:17.016Z,93147.00
2022-09-30T01:36:26.926Z,93161.00
2022-09-30T01:41:11.416Z,93166.00
2022-09-30T01:45:35.192Z,93162.00
2022-09-30T01:50:15.231Z,93162.00
2022-09-30T01:54:48.020Z,93171.00
2022-09-30T01:59:09.911Z,93160.00
2022-09-30T02:03:18.207Z,93164.00
2022-09-30T02:07:39.025Z,93165.00
2022-09-30T02:12:12.608Z,93176.00
2022-09-30T02:16:21.768Z,93172.00
2022-09-30T02:20:30.219Z,93170.00
2022-09-30T02:25:01.758Z,93164.00
2022-09-30T02:29:55.066Z,93158.00
2022-09-30T02:34:25.238Z,93164.00
2022-09-30T02:39:20.034Z,93164.00
2022-09-30T02:43:25.222Z,93171.00
2022-09-30T02:47:56.694Z,93171.00
2022-09-30T02:52:34.065Z,93174.00
2022-09-30T02:57:15.991Z,93179.00
2022-09-30T03:01:20.556Z,93182.00
2022-09-30T03:05:23.991Z,93183.00
2022-09-30T03:10:16.639Z,93189.00
2022-09-30T03:15:24.270Z,93207.00
2022-09-30T03:20:03.326Z,93210.00
2022-09-30T03:24:17.958Z,93208.00
2022-09-30T03:28:31.330Z,93214.00
2022-09-30T03:32:36.311Z,93216.00
2022-09-30T03:37:08.791Z,93217.00
2022-09-30T03:41:42.164Z,93222.00
2022-09-30T03:46:16.771Z,93224.00
2022-09-30T03:50:22.061Z,93220.00
2022-09-30T03:54:24.979Z,93240.00
2022-09-30T03:58:31.247Z,93247.00
2022-09-30T04:02:33.549Z,93249.00
2022-09-30T04:13:28.981Z,93257.00
2022-09-30T04:17:34.318Z,93259.00
2022-09-30T04:21:43.626Z,93255.00
2022-09-30T04:25:53.065Z,93264.00
2022-09-30T04:29:55.145Z,93268.00
2022-09-30T04:34:20.129Z,93269.00
2022-09-30T04:39:24.943Z,93266.00
2022-09-30T04:43:58.250Z,93276.00
2022-09-30T04:48:00.834Z,93278.00
2022-09-30T04:58:01.928Z,93294.00
2022-09-30T05:02:03.907Z,93296.00
2022-09-30T05:06:30.738Z,93299.00
2022-09-30T05:10:32.943Z,93308.00
2022-09-30T05:14:34.992Z,93320.00
2022-09-30T05:18:37.672Z,93329.00
2022-09-30T05:23:06.338Z,93326.00
2022-09-30T05:27:44.577Z,93337.00
2022-09-30T05:32:12.128Z,93344.00
2022-09-30T05:36:42.785Z,93347.00
2022-09-30T05:40:49.154Z,93358.00
2022-09-30T05:44:51.396Z,93363.00
2022-09-30T05:49:20.251Z,93379.00
2022-09-30T05:53:39.478Z,93381.00
2022-09-30T05:58:06.664Z,93389.00
2022-09-30T06:02:10.621Z,93385.00
2022-09-30T06:06:17.479Z,93393.00
2022-09-30T06:10:41.416Z,93391.00
2022-09-30T06:14:44.685Z,93389.00
2022-09-30T06:19:04.138Z,93409.00
2022-09-30T06:23:06.261Z,93401.00
2022-09-30T06:27:08.699Z,93415.00
2022-09-30T06:31:12.200Z,93416.00
2022-09-30T06:35:14.326Z,93420.00
2022-09-30T06:39:16.415Z,93421.00
2022-09-30T06:43:19.135Z,93425.00
2022-09-30T06:47:25.636Z,93434.00
2022-09-30T06:51:33.098Z,93431.00
2022-09-30T07:01:34.038Z,93444.00
2022-09-30T07:06:05.066Z,93444.00
2022-09-30T07:10:10.365Z,93445.00
2022-09-30T07:14:24.758Z,93450.00
2022-09-30T07:18:55.027Z,93438.00
2022-09-30T07:22:58.233Z,93441.00
2022-09-30T07:27:06.060Z,93445.00
2022-09-30T07:31:32.953Z,93461.00
2022-09-30T07:36:01.485Z,93478.00
2022-09-30T07:40:08.196Z,93484.00
2022-09-30T07:44:14.736Z,93490.00
2022-09-30T07:54:19.790Z,93493.00
2022-09-30T07:58:22.092Z,93505.00
2022-09-30T08:02:24.846Z,93515.00
2022-09-30T08:07:23.983Z,93518.00
2022-09-30T08:11:28.118Z,93516.00
2022-09-30T08:15:30.190Z,93535.00
2022-09-30T08:19:34.103Z,93526.00
2022-09-30T08:24:38.667Z,93533.00
2022-09-30T08:28:40.941Z,93542.00
2022-09-30T08:32:42.912Z,93547.00
2022-09-30T08:36:59.103Z,93548.00
2022-09-30T08:41:13.440Z,93557.00
2022-09-30T08:45:52.868Z,93564.00
2022-09-30T08:56:02.788Z,93557.00
2022-09-30T09:00:10.673Z,93572.00
2022-09-30T09:04:13.172Z,93581.00
2022-09-30T09:08:53.770Z,93567.00
2022-09-30T09:13:24.058Z,93582.00
2022-09-30T09:18:11.005Z,93593.00
2022-09-30T09:22:10.991Z,93599.00
2022-09-30T09:26:20.270Z,93601.00
2022-09-30T09:30:24.842Z,93597.00
2022-09-30T09:34:30.970Z,93599.00
2022-09-30T09:39:10.553Z,93606.00
2022-09-30T09:43:51.203Z,93590.00
2022-09-30T09:47:53.630Z,93587.00
2022-09-30T09:52:14.714Z,93580.00
2022-09-30T09:56:41.754Z,93594.00
2022-09-30T10:00:49.825Z,93587.00
2022-09-30T10:05:00.195Z,93599.00
2022-09-30T10:09:43.323Z,93606.00
2022-09-30T10:14:16.539Z,93618.00
2022-09-30T10:18:27.433Z,93631.00
2022-09-30T10:22:33.038Z,93637.00
2022-09-30T10:26:48.524Z,93641.00
2022-09-30T10:31:04.214Z,93642.00
2022-09-30T10:35:24.299Z,93627.00
2022-09-30T10:39:30.459Z,93652.00
2022-09-30T10:43:57.016Z,93666.00
2022-09-30T10:48:07.233Z,93671.00
2022-09-30T10:52:28.941Z,93669.00
2022-09-30T10:56:38.011Z,93660.00
2022-09-30T11:00:41.490Z,93684.00
2022-09-30T11:05:27.450Z,93687.00
2022-09-30T11:09:51.014Z,93688.00
2022-09-30T11:14:37.697Z,93673.00
2022-09-30T11:19:29.376Z,93680.00
2022-09-30T11:23:43.007Z,93672.00
2022-09-30T11:28:03.901Z,93676.00
2022-09-30T11:32:47.717Z,93685.00
2022-09-30T11:37:27.736Z,93694.00
2022-09-30T11:41:54.116Z,93702.00
2022-09-30T11:51:42.474Z,93705.00
2022-09-30T11:56:30.240Z,93727.00
2022-09-30T12:00:36.237Z,93710.00
2022-09-30T12:04:45.312Z,93725.00
2022-09-30T12:09:04.639Z,93723.00
2022-09-30T12:13:28.785Z,93723.00
2022-09-30T12:18:01.763Z,93723.00
2022-09-30T12:23:03.909Z,93738.00
2022-09-30T12:27:34.960Z,93742.00
2022-09-30T12:31:58.539Z,93732.00
2022-09-30T12:36:24.805Z,93733.00
2022-09-30T12:40:52.728Z,93735.00
2022-09-30T12:45:34.857Z,93720.00
2022-09-30T12:49:40.430Z,93719.00
2022-09-30T12:59:55.847Z,93727.00
2022-09-30T13:03:59.288Z,93730.00
2022-09-30T13:08:06.708Z,93730.00
2022-09-30T13:12:13.679Z,93720.00
2022-09-30T13:16:58.935Z,93722.00
2022-09-30T13:21:08.539Z,93722.00
2022-09-30T13:26:07.349Z,93729.00
2022-09-30T13:30:21.687Z,93719.00
2022-09-30T13:34:53.344Z,93717.00
2022-09-30T13:39:23.226Z,93725.00
2022-09-30T13:43:39.001Z,93722.00
2022-09-30T13:48:11.242Z,93732.00
2022-09-30T13:52:42.178Z,93721.00
2022-09-30T14:02:05.659Z,93729.00
2022-09-30T14:06:38.431Z,93730.00
2022-09-30T14:10:57.190Z,93737.00
2022-09-30T14:15:19.094Z,93741.00
2022-09-30T14:19:24.289Z,93738.00
2022-09-30T14:23:26.573Z,93742.00
2022-09-30T14:27:54.418Z,93736.00
2022-09-30T14:31:56.591Z,93739.00
2022-09-30T14:36:04.035Z,93741.00
2022-09-30T14:40:50.808Z,93743.00
2022-09-30T14:44:55.377Z,93739.00
2022-09-30T14:49:19.878Z,93736.00
2022-09-30T14:53:32.352Z,93733.00
2022-09-30T14:57:35.188Z,93723.00
2022-09-30T15:01:41.361Z,93722.00
2022-09-30T15:05:47.257Z,93720.00
2022-09-30T15:10:02.082Z,93717.00
2022-09-30T15:14:14.157Z,93715.00
2022-09-30T15:19:23.807Z,93725.00
2022-09-30T15:29:27.997Z,93724.00
2022-09-30T15:33:44.676Z,93725.00
2022-09-30T15:37:49.055Z,93727.00
2022-09-30T15:41:52.070Z,93738.00
2022-09-30T15:45:55.310Z,93737.00
2022-09-30T15:49:57.473Z,93742.00
2022-09-30T15:54:32.045Z,93746.00
2022-09-30T15:58:57.070Z,93766.00
2022-09-30T16:04:01.599Z,93769.00
2022-09-30T16:08:09.869Z,93767.00
2022-09-30T16:12:12.180Z,93777.00
2022-09-30T16:16:32.671Z,93782.00
2022-09-30T16:20:35.147Z,93792.00
2022-09-30T16:24:45.981Z,93786.00
2022-09-30T16:29:49.009Z,93797.00
2022-09-30T16:34:24.939Z,93804.00
2022-09-30T16:38:32.502Z,93804.00
2022-09-30T16:42:35.613Z,93798.00
2022-09-30T16:46:49.212Z,93793.00
2022-09-30T16:51:17.014Z,93804.00
2022-09-30T16:55:19.151Z,93788.00
2022-09-30T16:59:22.259Z,93796.00
2022-09-30T17:03:24.406Z,93794.00
2022-09-30T17:07:26.425Z,93799.00
2022-09-30T17:11:33.721Z,93804.00
2022-09-30T17:15:37.492Z,93804.00
2022-09-30T17:19:39.759Z,93815.00
2022-09-30T17:23:42.918Z,93816.00
2022-09-30T17:27:51.153Z,93809.00
2022-09-30T17:31:55.740Z,93812.00
2022-09-30T17:36:02.378Z,93816.00
2022-09-30T17:40:27.208Z,93822.00
2022-09-30T17:44:29.793Z,93819.00
2022-09-30T17:48:32.052Z,93817.00
2022-09-30T17:52:34.457Z,93816.00
2022-09-30T17:57:32.823Z,93826.00
2022-09-30T18:01:36.991Z,93829.00
2022-09-30T18:05:39.696Z,93832.00
2022-09-30T18:10:12.341Z,93832.00
2022-09-30T18:14:43.958Z,93830.00
2022-09-30T18:19:48.272Z,93835.00
2022-09-30T18:23:52.942Z,93822.00
2022-09-30T18:27:59.293Z,93832.00
2022-09-30T18:32:28.957Z,93831.00
2022-09-30T18:36:58.613Z,93831.00
2022-09-30T18:41:07.603Z,93836.00
2022-09-30T18:45:17.209Z,93840.00
2022-09-30T18:49:19.383Z,93838.00
2022-09-30T18:53:23.321Z,93840.00
2022-09-30T18:57:25.477Z,93823.00
2022-09-30T19:01:28.027Z,93828.00
2022-09-30T19:06:21.916Z,93829.00
2022-09-30T19:10:50.746Z,93829.00
2022-09-30T19:15:19.339Z,93825.00
2022-09-30T19:19:31.795Z,93825.00
2022-09-30T19:23:41.200Z,93814.00
2022-09-30T19:28:09.123Z,93803.00
2022-09-30T19:32:12.897Z,93808.00
2022-09-30T19:36:16.736Z,93798.00
2022-09-30T19:40:21.914Z,93809.00
2022-09-30T19:44:24.418Z,93814.00
2022-09-30T19:48:35.960Z,93807.00
2022-09-30T19:52:49.024Z,93814.00
2022-09-30T19:56:53.916Z,93815.00
2022-09-30T20:01:01.675Z,93826.00
2022-09-30T20:05:24.759Z,93825.00
2022-09-30T20:10:29.048Z,93820.00
2022-09-30T20:20:25.696Z,93817.00
2022-09-30T20:24:34.780Z,93808.00
2022-09-30T20:28:37.163Z,93802.00
2022-09-30T20:33:19.796Z,93810.00
2022-09-30T20:37:23.305Z,93814.00
2022-09-30T20:41:38.256Z,93805.00
2022-09-30T20:46:41.774Z,93800.00
2022-09-30T20:50:48.583Z,93800.00
2022-09-30T20:54:50.767Z,93806.00
2022-09-30T20:59:23.197Z,93815.00
2022-09-30T21:03:26.324Z,93813.00
2022-09-30T21:07:31.052Z,93822.00
2022-09-30T21:11:33.714Z,93822.00
2022-09-30T21:15:41.080Z,93819.00
2022-09-30T21:19:43.817Z,93815.00
2022-09-30T21:23:46.160Z,93818.00
2022-09-30T21:27:49.050Z,93820.00
2022-09-30T21:32:22.070Z,93828.00
2022-09-30T21:36:40.241Z,93821.00
2022-09-30T21:41:09.464Z,93816.00
2022-09-30T21:45:11.652Z,93819.00
2022-09-30T21:49:19.628Z,93826.00
2022-09-30T21:53:22.417Z,93827.00
2022-09-30T21:57:24.575Z,93831.00
2022-09-30T22:01:35.741Z,93824.00
2022-09-30T22:05:38.297Z,93837.00
2022-09-30T22:09:42.675Z,93836.00
2022-09-30T22:13:46.090Z,93825.00
2022-09-30T22:17:48.025Z,93831.00
2022-09-30T22:21:50.168Z,93842.00
2022-09-30T22:25:52.090Z,93843.00
2022-09-30T22:30:48.946Z,93843.00
2022-09-30T22:35:13.647Z,93852.00
2022-09-30T22:39:28.076Z,93858.00
2022-09-30T22:43:32.888Z,93850.00
2022-09-30T22:47:36.143Z,93845.00
2022-09-30T22:52:04.021Z,93856.00
2022-09-30T22:56:07.425Z,93844.00
2022-09-30T23:00:10.769Z,93854.00
2022-09-30T23:04:19.003Z,93857.00
2022-09-30T23:08:30.917Z,93847.00
2022-09-30T23:12:35.278Z,93848.00
2022-09-30T23:16:38.969Z,93844.00
2022-09-30T23:20:57.782Z,93833.00
2022-09-30T23:25:02.690Z,93841.00
2022-09-30T23:29:07.183Z,93836.00
2022-09-30T23:33:30.036Z,93836.00
2022-09-30T23:37:32.433Z,93834.00
2022-09-30T23:41:35.985Z,93854.00
2022-09-30T23:45:39.502Z,93863.00
2022-09-30T23:49:42.107Z,93856.00
2022-09-30T23:53:44.075Z,93853.00
2022-09-30T23:57:46.730Z,93857.00
